sensor_id;sensor_type;location;lat;lon;timestamp;P1;durP1;ratioP1;P2;durP2;ratioP2
62616;SDS011;62539;51.190;6.808;2022-12-18T00:00:52;7.47;;;3.67;;
62616;SDS011;62539;51.190;6.808;2022-12-18T00:03:18;6.80;;;3.03;;
62616;SDS011;62539;51.190;6.808;2022-12-18T00:05:50;6.15;;;2.95;;
62616;SDS011;62539;51.190;6.808;2022-12-18T00:08:17;5.57;;;3.65;;
62616;SDS011;62539;51.190;6.808;2022-12-18T00:10:43;6.90;;;3.28;;
62616;SDS011;62539;51.190;6.808;2022-12-18T00:13:10;5.47;;;3.25;;
62616;SDS011;62539;51.190;6.808;2022-12-18T00:15:36;5.68;;;3.50;;
62616;SDS011;62539;51.190;6.808;2022-12-18T00:18:04;7.28;;;3.35;;
62616;SDS011;62539;51.190;6.808;2022-12-18T00:20:29;6.43;;;3.60;;
62616;SDS011;62539;51.190;6.808;2022-12-18T00:22:56;8.05;;;3.60;;
62616;SDS011;62539;51.190;6.808;2022-12-18T00:25:21;7.22;;;3.45;;
62616;SDS011;62539;51.190;6.808;2022-12-18T00:27:47;4.65;;;2.95;;
62616;SDS011;62539;51.190;6.808;2022-12-18T00:30:13;8.68;;;3.30;;
62616;SDS011;62539;51.190;6.808;2022-12-18T00:32:38;5.13;;;3.10;;
62616;SDS011;62539;51.190;6.808;2022-12-18T00:35:04;4.32;;;3.00;;
62616;SDS011;62539;51.190;6.808;2022-12-18T00:37:32;5.43;;;3.28;;
62616;SDS011;62539;51.190;6.808;2022-12-18T00:39:59;4.55;;;3.17;;
62616;SDS011;62539;51.190;6.808;2022-12-18T00:42:24;5.90;;;3.00;;
62616;SDS011;62539;51.190;6.808;2022-12-18T00:45:08;5.18;;;3.30;;
62616;SDS011;62539;51.190;6.808;2022-12-18T00:47:33;4.47;;;3.10;;
62616;SDS011;62539;51.190;6.808;2022-12-18T00:49:59;3.95;;;3.08;;
62616;SDS011;62539;51.190;6.808;2022-12-18T00:52:24;4.88;;;3.08;;
62616;SDS011;62539;51.190;6.808;2022-12-18T00:54:50;5.53;;;3.38;;
62616;SDS011;62539;51.190;6.808;2022-12-18T00:57:15;6.80;;;3.15;;
62616;SDS011;62539;51.190;6.808;2022-12-18T00:59:40;5.47;;;2.88;;
62616;SDS011;62539;51.190;6.808;2022-12-18T01:02:06;6.65;;;3.60;;
62616;SDS011;62539;51.190;6.808;2022-12-18T01:04:31;7.40;;;3.42;;
62616;SDS011;62539;51.190;6.808;2022-12-18T01:06:58;4.63;;;2.92;;
62616;SDS011;62539;51.190;6.808;2022-12-18T01:09:23;3.35;;;2.92;;
62616;SDS011;62539;51.190;6.808;2022-12-18T01:11:49;5.63;;;3.28;;
62616;SDS011;62539;51.190;6.808;2022-12-18T01:14:14;4.38;;;3.05;;
62616;SDS011;62539;51.190;6.808;2022-12-18T01:16:40;6.13;;;3.10;;
62616;SDS011;62539;51.190;6.808;2022-12-18T01:19:05;8.13;;;3.17;;
62616;SDS011;62539;51.190;6.808;2022-12-18T01:21:31;4.82;;;2.92;;
62616;SDS011;62539;51.190;6.808;2022-12-18T01:23:56;5.88;;;3.10;;
62616;SDS011;62539;51.190;6.808;2022-12-18T01:26:22;3.85;;;2.85;;
62616;SDS011;62539;51.190;6.808;2022-12-18T01:28:50;4.68;;;3.17;;
62616;SDS011;62539;51.190;6.808;2022-12-18T01:31:20;4.57;;;3.00;;
62616;SDS011;62539;51.190;6.808;2022-12-18T01:33:50;3.92;;;3.00;;
62616;SDS011;62539;51.190;6.808;2022-12-18T01:36:18;6.30;;;2.78;;
62616;SDS011;62539;51.190;6.808;2022-12-18T01:38:50;4.70;;;2.90;;
62616;SDS011;62539;51.190;6.808;2022-12-18T01:41:18;5.65;;;3.30;;
62616;SDS011;62539;51.190;6.808;2022-12-18T01:43:53;3.97;;;2.83;;
62616;SDS011;62539;51.190;6.808;2022-12-18T01:46:24;3.88;;;2.70;;
62616;SDS011;62539;51.190;6.808;2022-12-18T01:48:57;4.30;;;2.58;;
62616;SDS011;62539;51.190;6.808;2022-12-18T01:51:27;4.85;;;2.72;;
62616;SDS011;62539;51.190;6.808;2022-12-18T01:53:54;7.78;;;2.80;;
62616;SDS011;62539;51.190;6.808;2022-12-18T01:56:21;4.80;;;2.95;;
62616;SDS011;62539;51.190;6.808;2022-12-18T01:58:52;5.55;;;3.17;;
62616;SDS011;62539;51.190;6.808;2022-12-18T02:01:28;5.40;;;3.58;;
62616;SDS011;62539;51.190;6.808;2022-12-18T02:03:55;4.10;;;3.03;;
62616;SDS011;62539;51.190;6.808;2022-12-18T02:18:59;4.88;;;2.97;;
62616;SDS011;62539;51.190;6.808;2022-12-18T02:21:55;5.03;;;3.00;;
62616;SDS011;62539;51.190;6.808;2022-12-18T02:24:52;4.75;;;3.17;;
62616;SDS011;62539;51.190;6.808;2022-12-18T02:27:31;3.75;;;2.80;;
62616;SDS011;62539;51.190;6.808;2022-12-18T02:30:00;4.47;;;3.15;;
62616;SDS011;62539;51.190;6.808;2022-12-18T02:32:30;3.55;;;2.90;;
62616;SDS011;62539;51.190;6.808;2022-12-18T02:35:04;4.50;;;3.00;;
62616;SDS011;62539;51.190;6.808;2022-12-18T02:37:34;9.07;;;3.25;;
62616;SDS011;62539;51.190;6.808;2022-12-18T02:40:04;6.78;;;3.78;;
62616;SDS011;62539;51.190;6.808;2022-12-18T02:42:31;4.75;;;3.00;;
62616;SDS011;62539;51.190;6.808;2022-12-18T02:44:57;6.68;;;3.50;;
62616;SDS011;62539;51.190;6.808;2022-12-18T02:47:24;4.60;;;2.72;;
62616;SDS011;62539;51.190;6.808;2022-12-18T02:50:07;5.40;;;2.97;;
62616;SDS011;62539;51.190;6.808;2022-12-18T03:01:24;3.60;;;2.80;;
62616;SDS011;62539;51.190;6.808;2022-12-18T03:06:47;4.40;;;2.78;;
62616;SDS011;62539;51.190;6.808;2022-12-18T03:09:19;3.75;;;2.85;;
62616;SDS011;62539;51.190;6.808;2022-12-18T03:11:54;5.50;;;2.97;;
62616;SDS011;62539;51.190;6.808;2022-12-18T03:14:49;3.83;;;2.78;;
62616;SDS011;62539;51.190;6.808;2022-12-18T03:17:23;5.40;;;2.90;;
62616;SDS011;62539;51.190;6.808;2022-12-18T03:19:52;4.20;;;2.70;;
62616;SDS011;62539;51.190;6.808;2022-12-18T03:22:23;5.70;;;2.72;;
62616;SDS011;62539;51.190;6.808;2022-12-18T03:24:54;4.20;;;2.63;;
62616;SDS011;62539;51.190;6.808;2022-12-18T03:27:22;4.38;;;2.65;;
62616;SDS011;62539;51.190;6.808;2022-12-18T03:29:52;4.47;;;3.00;;
62616;SDS011;62539;51.190;6.808;2022-12-18T03:32:46;3.60;;;2.85;;
62616;SDS011;62539;51.190;6.808;2022-12-18T03:35:22;2.80;;;2.47;;
62616;SDS011;62539;51.190;6.808;2022-12-18T03:37:56;4.32;;;2.97;;
62616;SDS011;62539;51.190;6.808;2022-12-18T03:40:23;5.78;;;2.72;;
62616;SDS011;62539;51.190;6.808;2022-12-18T03:46:17;3.75;;;2.78;;
62616;SDS011;62539;51.190;6.808;2022-12-18T03:48:59;4.88;;;2.60;;
62616;SDS011;62539;51.190;6.808;2022-12-18T03:51:48;3.47;;;2.80;;
62616;SDS011;62539;51.190;6.808;2022-12-18T03:54:24;3.70;;;2.70;;
62616;SDS011;62539;51.190;6.808;2022-12-18T03:57:06;4.22;;;2.85;;
62616;SDS011;62539;51.190;6.808;2022-12-18T03:59:36;4.03;;;2.50;;
62616;SDS011;62539;51.190;6.808;2022-12-18T04:02:04;3.70;;;2.85;;
62616;SDS011;62539;51.190;6.808;2022-12-18T04:04:33;4.80;;;2.65;;
62616;SDS011;62539;51.190;6.808;2022-12-18T04:07:03;5.55;;;2.78;;
62616;SDS011;62539;51.190;6.808;2022-12-18T04:09:31;4.00;;;2.72;;
62616;SDS011;62539;51.190;6.808;2022-12-18T04:11:59;3.25;;;2.50;;
62616;SDS011;62539;51.190;6.808;2022-12-18T04:14:24;3.88;;;2.55;;
62616;SDS011;62539;51.190;6.808;2022-12-18T04:16:50;3.42;;;2.40;;
62616;SDS011;62539;51.190;6.808;2022-12-18T04:19:15;3.72;;;2.47;;
62616;SDS011;62539;51.190;6.808;2022-12-18T04:21:41;4.88;;;2.67;;
62616;SDS011;62539;51.190;6.808;2022-12-18T04:24:06;3.75;;;2.58;;
62616;SDS011;62539;51.190;6.808;2022-12-18T04:26:31;3.42;;;2.45;;
62616;SDS011;62539;51.190;6.808;2022-12-18T04:28:57;3.60;;;2.50;;
62616;SDS011;62539;51.190;6.808;2022-12-18T04:31:22;3.35;;;2.38;;
62616;SDS011;62539;51.190;6.808;2022-12-18T04:33:48;3.03;;;2.35;;
62616;SDS011;62539;51.190;6.808;2022-12-18T04:36:13;3.15;;;2.60;;
62616;SDS011;62539;51.190;6.808;2022-12-18T04:38:38;3.75;;;2.90;;
62616;SDS011;62539;51.190;6.808;2022-12-18T04:41:04;4.22;;;2.60;;
62616;SDS011;62539;51.190;6.808;2022-12-18T04:43:29;4.50;;;2.53;;
62616;SDS011;62539;51.190;6.808;2022-12-18T04:46:01;4.78;;;2.70;;
62616;SDS011;62539;51.190;6.808;2022-12-18T04:48:31;2.70;;;2.45;;
62616;SDS011;62539;51.190;6.808;2022-12-18T04:50:57;3.03;;;2.25;;
62616;SDS011;62539;51.190;6.808;2022-12-18T04:53:23;3.38;;;2.25;;
62616;SDS011;62539;51.190;6.808;2022-12-18T04:55:48;3.17;;;2.35;;
62616;SDS011;62539;51.190;6.808;2022-12-18T04:58:13;3.80;;;2.70;;
62616;SDS011;62539;51.190;6.808;2022-12-18T05:00:39;3.97;;;2.67;;
62616;SDS011;62539;51.190;6.808;2022-12-18T05:03:04;3.30;;;2.40;;
62616;SDS011;62539;51.190;6.808;2022-12-18T05:05:30;3.47;;;2.67;;
62616;SDS011;62539;51.190;6.808;2022-12-18T05:07:55;4.57;;;2.78;;
62616;SDS011;62539;51.190;6.808;2022-12-18T05:10:21;2.78;;;2.20;;
62616;SDS011;62539;51.190;6.808;2022-12-18T05:12:46;2.50;;;2.25;;
62616;SDS011;62539;51.190;6.808;2022-12-18T05:15:33;3.17;;;2.53;;
62616;SDS011;62539;51.190;6.808;2022-12-18T05:17:59;3.28;;;2.53;;
62616;SDS011;62539;51.190;6.808;2022-12-18T05:20:26;4.15;;;2.38;;
62616;SDS011;62539;51.190;6.808;2022-12-18T05:22:52;3.15;;;2.53;;
62616;SDS011;62539;51.190;6.808;2022-12-18T05:25:18;3.80;;;2.38;;
62616;SDS011;62539;51.190;6.808;2022-12-18T05:27:44;2.85;;;2.50;;
62616;SDS011;62539;51.190;6.808;2022-12-18T05:30:11;3.13;;;2.20;;
62616;SDS011;62539;51.190;6.808;2022-12-18T05:32:37;5.10;;;2.45;;
62616;SDS011;62539;51.190;6.808;2022-12-18T05:35:03;3.47;;;2.70;;
62616;SDS011;62539;51.190;6.808;2022-12-18T05:37:30;3.33;;;2.25;;
62616;SDS011;62539;51.190;6.808;2022-12-18T05:39:56;3.28;;;2.30;;
62616;SDS011;62539;51.190;6.808;2022-12-18T05:42:21;3.78;;;2.67;;
62616;SDS011;62539;51.190;6.808;2022-12-18T05:44:47;2.85;;;2.50;;
62616;SDS011;62539;51.190;6.808;2022-12-18T05:47:13;3.90;;;2.50;;
62616;SDS011;62539;51.190;6.808;2022-12-18T05:49:38;3.15;;;2.50;;
62616;SDS011;62539;51.190;6.808;2022-12-18T05:52:04;3.10;;;2.30;;
62616;SDS011;62539;51.190;6.808;2022-12-18T05:54:29;3.50;;;2.58;;
62616;SDS011;62539;51.190;6.808;2022-12-18T05:56:55;3.20;;;2.30;;
62616;SDS011;62539;51.190;6.808;2022-12-18T05:59:21;3.25;;;2.17;;
62616;SDS011;62539;51.190;6.808;2022-12-18T06:01:47;3.30;;;2.40;;
62616;SDS011;62539;51.190;6.808;2022-12-18T06:04:12;2.67;;;2.28;;
62616;SDS011;62539;51.190;6.808;2022-12-18T06:06:38;3.55;;;2.20;;
62616;SDS011;62539;51.190;6.808;2022-12-18T06:09:03;2.40;;;2.15;;
62616;SDS011;62539;51.190;6.808;2022-12-18T06:11:33;2.33;;;2.10;;
62616;SDS011;62539;51.190;6.808;2022-12-18T06:14:00;2.42;;;2.22;;
62616;SDS011;62539;51.190;6.808;2022-12-18T06:16:26;5.15;;;2.00;;
62616;SDS011;62539;51.190;6.808;2022-12-18T06:18:55;3.10;;;2.00;;
62616;SDS011;62539;51.190;6.808;2022-12-18T06:21:25;2.58;;;2.30;;
62616;SDS011;62539;51.190;6.808;2022-12-18T06:23:52;2.97;;;2.40;;
62616;SDS011;62539;51.190;6.808;2022-12-18T06:26:17;3.05;;;2.55;;
62616;SDS011;62539;51.190;6.808;2022-12-18T06:28:43;3.33;;;2.50;;
62616;SDS011;62539;51.190;6.808;2022-12-18T06:31:09;3.20;;;2.40;;
62616;SDS011;62539;51.190;6.808;2022-12-18T06:33:35;3.97;;;2.30;;
62616;SDS011;62539;51.190;6.808;2022-12-18T06:36:06;3.28;;;2.28;;
62616;SDS011;62539;51.190;6.808;2022-12-18T06:38:35;2.78;;;2.13;;
62616;SDS011;62539;51.190;6.808;2022-12-18T06:41:14;4.20;;;2.47;;
62616;SDS011;62539;51.190;6.808;2022-12-18T06:43:42;4.22;;;2.45;;
62616;SDS011;62539;51.190;6.808;2022-12-18T06:46:08;4.25;;;2.17;;
62616;SDS011;62539;51.190;6.808;2022-12-18T06:48:35;3.92;;;2.30;;
62616;SDS011;62539;51.190;6.808;2022-12-18T06:51:01;3.97;;;2.28;;
62616;SDS011;62539;51.190;6.808;2022-12-18T06:53:26;3.38;;;2.50;;
62616;SDS011;62539;51.190;6.808;2022-12-18T06:55:58;3.72;;;2.00;;
62616;SDS011;62539;51.190;6.808;2022-12-18T06:58:26;3.30;;;2.35;;
62616;SDS011;62539;51.190;6.808;2022-12-18T07:00:52;2.97;;;2.40;;
62616;SDS011;62539;51.190;6.808;2022-12-18T07:03:17;2.83;;;2.47;;
62616;SDS011;62539;51.190;6.808;2022-12-18T07:05:43;3.58;;;2.30;;
62616;SDS011;62539;51.190;6.808;2022-12-18T07:08:08;4.32;;;2.40;;
62616;SDS011;62539;51.190;6.808;2022-12-18T07:10:39;2.30;;;2.00;;
62616;SDS011;62539;51.190;6.808;2022-12-18T07:13:07;3.17;;;2.50;;
62616;SDS011;62539;51.190;6.808;2022-12-18T07:15:32;2.90;;;2.40;;
62616;SDS011;62539;51.190;6.808;2022-12-18T07:17:58;2.30;;;1.98;;
62616;SDS011;62539;51.190;6.808;2022-12-18T07:20:23;2.30;;;2.10;;
62616;SDS011;62539;51.190;6.808;2022-12-18T07:22:48;2.63;;;2.00;;
62616;SDS011;62539;51.190;6.808;2022-12-18T07:25:14;3.15;;;2.10;;
62616;SDS011;62539;51.190;6.808;2022-12-18T07:27:40;2.78;;;2.35;;
62616;SDS011;62539;51.190;6.808;2022-12-18T07:30:05;2.13;;;1.88;;
62616;SDS011;62539;51.190;6.808;2022-12-18T07:32:32;2.10;;;1.90;;
62616;SDS011;62539;51.190;6.808;2022-12-18T07:34:57;2.53;;;2.10;;
62616;SDS011;62539;51.190;6.808;2022-12-18T07:37:22;3.95;;;2.47;;
62616;SDS011;62539;51.190;6.808;2022-12-18T07:39:48;3.45;;;2.50;;
62616;SDS011;62539;51.190;6.808;2022-12-18T07:42:13;2.60;;;2.20;;
62616;SDS011;62539;51.190;6.808;2022-12-18T07:45:00;3.28;;;2.47;;
62616;SDS011;62539;51.190;6.808;2022-12-18T07:47:29;2.22;;;2.00;;
62616;SDS011;62539;51.190;6.808;2022-12-18T07:49:54;3.00;;;2.25;;
62616;SDS011;62539;51.190;6.808;2022-12-18T07:52:20;2.88;;;2.22;;
62616;SDS011;62539;51.190;6.808;2022-12-18T07:54:46;3.45;;;2.13;;
62616;SDS011;62539;51.190;6.808;2022-12-18T07:57:14;2.88;;;2.42;;
62616;SDS011;62539;51.190;6.808;2022-12-18T07:59:40;2.92;;;2.20;;
62616;SDS011;62539;51.190;6.808;2022-12-18T08:02:05;2.83;;;2.20;;
62616;SDS011;62539;51.190;6.808;2022-12-18T08:04:30;2.90;;;2.10;;
62616;SDS011;62539;51.190;6.808;2022-12-18T08:06:56;2.67;;;2.17;;
62616;SDS011;62539;51.190;6.808;2022-12-18T08:09:21;3.40;;;2.40;;
62616;SDS011;62539;51.190;6.808;2022-12-18T08:11:47;3.05;;;2.53;;
62616;SDS011;62539;51.190;6.808;2022-12-18T08:14:12;4.72;;;2.50;;
62616;SDS011;62539;51.190;6.808;2022-12-18T08:16:38;2.65;;;2.20;;
62616;SDS011;62539;51.190;6.808;2022-12-18T08:19:04;6.28;;;2.50;;
62616;SDS011;62539;51.190;6.808;2022-12-18T08:21:30;5.00;;;2.22;;
62616;SDS011;62539;51.190;6.808;2022-12-18T08:23:57;4.05;;;2.00;;
62616;SDS011;62539;51.190;6.808;2022-12-18T08:26:27;8.40;;;2.33;;
62616;SDS011;62539;51.190;6.808;2022-12-18T08:28:56;4.88;;;2.40;;
62616;SDS011;62539;51.190;6.808;2022-12-18T08:31:23;3.53;;;2.35;;
62616;SDS011;62539;51.190;6.808;2022-12-18T08:33:51;8.07;;;2.80;;
62616;SDS011;62539;51.190;6.808;2022-12-18T08:36:19;9.38;;;2.58;;
62616;SDS011;62539;51.190;6.808;2022-12-18T08:38:45;6.90;;;2.50;;
62616;SDS011;62539;51.190;6.808;2022-12-18T08:41:12;8.50;;;2.42;;
62616;SDS011;62539;51.190;6.808;2022-12-18T08:43:40;4.35;;;2.45;;
62616;SDS011;62539;51.190;6.808;2022-12-18T08:46:25;4.07;;;2.67;;
62616;SDS011;62539;51.190;6.808;2022-12-18T08:48:56;3.83;;;2.47;;
62616;SDS011;62539;51.190;6.808;2022-12-18T08:51:21;9.27;;;2.78;;
62616;SDS011;62539;51.190;6.808;2022-12-18T08:53:47;19.95;;;2.65;;
62616;SDS011;62539;51.190;6.808;2022-12-18T08:56:12;12.15;;;3.40;;
62616;SDS011;62539;51.190;6.808;2022-12-18T08:58:40;4.35;;;2.47;;
62616;SDS011;62539;51.190;6.808;2022-12-18T09:01:07;13.13;;;2.72;;
62616;SDS011;62539;51.190;6.808;2022-12-18T09:03:35;6.85;;;2.70;;
62616;SDS011;62539;51.190;6.808;2022-12-18T09:06:01;11.40;;;2.35;;
62616;SDS011;62539;51.190;6.808;2022-12-18T09:08:27;4.97;;;2.08;;
62616;SDS011;62539;51.190;6.808;2022-12-18T09:10:53;7.18;;;2.65;;
62616;SDS011;62539;51.190;6.808;2022-12-18T09:13:20;9.25;;;3.03;;
62616;SDS011;62539;51.190;6.808;2022-12-18T09:15:47;7.63;;;2.67;;
62616;SDS011;62539;51.190;6.808;2022-12-18T09:20:43;12.95;;;2.42;;
62616;SDS011;62539;51.190;6.808;2022-12-18T09:23:10;12.73;;;2.50;;
62616;SDS011;62539;51.190;6.808;2022-12-18T09:25:35;9.65;;;2.53;;
62616;SDS011;62539;51.190;6.808;2022-12-18T09:28:02;10.30;;;2.50;;
62616;SDS011;62539;51.190;6.808;2022-12-18T09:30:38;6.30;;;2.30;;
62616;SDS011;62539;51.190;6.808;2022-12-18T09:33:06;8.20;;;2.47;;
62616;SDS011;62539;51.190;6.808;2022-12-18T09:35:32;10.73;;;3.38;;
62616;SDS011;62539;51.190;6.808;2022-12-18T09:37:57;5.70;;;2.25;;
62616;SDS011;62539;51.190;6.808;2022-12-18T09:40:23;18.45;;;2.67;;
62616;SDS011;62539;51.190;6.808;2022-12-18T09:43:02;8.05;;;2.80;;
62616;SDS011;62539;51.190;6.808;2022-12-18T09:45:33;6.47;;;2.35;;
62616;SDS011;62539;51.190;6.808;2022-12-18T09:48:10;9.75;;;2.35;;
62616;SDS011;62539;51.190;6.808;2022-12-18T09:50:48;13.95;;;3.50;;
62616;SDS011;62539;51.190;6.808;2022-12-18T09:53:20;21.52;;;4.63;;
62616;SDS011;62539;51.190;6.808;2022-12-18T09:55:51;25.33;;;5.93;;
62616;SDS011;62539;51.190;6.808;2022-12-18T10:01:00;26.15;;;5.97;;
62616;SDS011;62539;51.190;6.808;2022-12-18T10:03:26;22.30;;;5.25;;
62616;SDS011;62539;51.190;6.808;2022-12-18T10:06:27;13.30;;;4.82;;
62616;SDS011;62539;51.190;6.808;2022-12-18T10:09:34;29.38;;;4.35;;
62616;SDS011;62539;51.190;6.808;2022-12-18T10:12:35;13.15;;;4.20;;
62616;SDS011;62539;51.190;6.808;2022-12-18T10:15:26;14.93;;;4.20;;
62616;SDS011;62539;51.190;6.808;2022-12-18T10:18:04;17.35;;;4.32;;
62616;SDS011;62539;51.190;6.808;2022-12-18T10:20:43;11.98;;;4.13;;
62616;SDS011;62539;51.190;6.808;2022-12-18T10:23:20;13.60;;;3.92;;
62616;SDS011;62539;51.190;6.808;2022-12-18T10:26:05;17.20;;;5.20;;
62616;SDS011;62539;51.190;6.808;2022-12-18T10:28:37;15.55;;;4.28;;
62616;SDS011;62539;51.190;6.808;2022-12-18T10:31:06;9.00;;;3.42;;
62616;SDS011;62539;51.190;6.808;2022-12-18T10:33:41;13.63;;;4.53;;
62616;SDS011;62539;51.190;6.808;2022-12-18T10:36:07;11.27;;;4.03;;
62616;SDS011;62539;51.190;6.808;2022-12-18T10:38:33;17.25;;;4.05;;
62616;SDS011;62539;51.190;6.808;2022-12-18T10:41:03;9.15;;;3.97;;
62616;SDS011;62539;51.190;6.808;2022-12-18T10:43:43;16.00;;;4.15;;
62616;SDS011;62539;51.190;6.808;2022-12-18T10:51:16;12.82;;;3.83;;
62616;SDS011;62539;51.190;6.808;2022-12-18T10:56:50;18.23;;;4.15;;
62616;SDS011;62539;51.190;6.808;2022-12-18T10:59:16;13.57;;;3.28;;
62616;SDS011;62539;51.190;6.808;2022-12-18T11:01:53;17.08;;;4.10;;
62616;SDS011;62539;51.190;6.808;2022-12-18T11:04:25;11.13;;;3.47;;
62616;SDS011;62539;51.190;6.808;2022-12-18T11:09:31;20.83;;;4.07;;
62616;SDS011;62539;51.190;6.808;2022-12-18T11:12:19;8.75;;;3.40;;
62616;SDS011;62539;51.190;6.808;2022-12-18T11:14:48;10.38;;;4.18;;
62616;SDS011;62539;51.190;6.808;2022-12-18T11:17:21;17.45;;;4.03;;
62616;SDS011;62539;51.190;6.808;2022-12-18T11:20:05;19.65;;;3.35;;
62616;SDS011;62539;51.190;6.808;2022-12-18T11:22:44;9.52;;;4.15;;
62616;SDS011;62539;51.190;6.808;2022-12-18T11:25:22;12.43;;;3.63;;
62616;SDS011;62539;51.190;6.808;2022-12-18T11:27:48;8.90;;;3.42;;
62616;SDS011;62539;51.190;6.808;2022-12-18T11:30:29;8.07;;;3.45;;
62616;SDS011;62539;51.190;6.808;2022-12-18T11:33:10;8.45;;;3.10;;
62616;SDS011;62539;51.190;6.808;2022-12-18T11:35:52;9.38;;;3.30;;
62616;SDS011;62539;51.190;6.808;2022-12-18T11:38:24;10.88;;;3.47;;
62616;SDS011;62539;51.190;6.808;2022-12-18T11:44:01;8.95;;;3.55;;
62616;SDS011;62539;51.190;6.808;2022-12-18T11:46:36;6.43;;;3.00;;
62616;SDS011;62539;51.190;6.808;2022-12-18T11:49:13;6.78;;;3.70;;
62616;SDS011;62539;51.190;6.808;2022-12-18T11:51:49;6.30;;;3.22;;
62616;SDS011;62539;51.190;6.808;2022-12-18T11:54:23;7.38;;;3.10;;
62616;SDS011;62539;51.190;6.808;2022-12-18T11:56:50;9.40;;;3.28;;
62616;SDS011;62539;51.190;6.808;2022-12-18T12:14:09;6.70;;;3.35;;
62616;SDS011;62539;51.190;6.808;2022-12-18T12:16:44;11.27;;;3.60;;
62616;SDS011;62539;51.190;6.808;2022-12-18T12:34:05;6.00;;;3.75;;
62616;SDS011;62539;51.190;6.808;2022-12-18T12:37:11;5.80;;;3.47;;
62616;SDS011;62539;51.190;6.808;2022-12-18T12:39:59;5.68;;;3.47;;
62616;SDS011;62539;51.190;6.808;2022-12-18T12:42:40;5.97;;;3.05;;
62616;SDS011;62539;51.190;6.808;2022-12-18T12:45:33;11.07;;;3.80;;
62616;SDS011;62539;51.190;6.808;2022-12-18T12:48:07;6.95;;;3.60;;
62616;SDS011;62539;51.190;6.808;2022-12-18T12:50:45;11.00;;;3.33;;
62616;SDS011;62539;51.190;6.808;2022-12-18T12:53:15;5.93;;;3.80;;
62616;SDS011;62539;51.190;6.808;2022-12-18T12:55:54;4.65;;;3.03;;
62616;SDS011;62539;51.190;6.808;2022-12-18T13:10:11;6.35;;;3.83;;
62616;SDS011;62539;51.190;6.808;2022-12-18T13:15:40;4.18;;;3.22;;
62616;SDS011;62539;51.190;6.808;2022-12-18T13:31:01;7.43;;;3.53;;
62616;SDS011;62539;51.190;6.808;2022-12-18T13:33:41;9.23;;;3.70;;
62616;SDS011;62539;51.190;6.808;2022-12-18T13:44:31;4.30;;;3.78;;
62616;SDS011;62539;51.190;6.808;2022-12-18T13:47:00;5.20;;;3.03;;
62616;SDS011;62539;51.190;6.808;2022-12-18T13:52:16;6.38;;;3.72;;
62616;SDS011;62539;51.190;6.808;2022-12-18T13:54:47;7.40;;;3.83;;
62616;SDS011;62539;51.190;6.808;2022-12-18T14:02:57;6.65;;;3.83;;
62616;SDS011;62539;51.190;6.808;2022-12-18T14:07:55;6.68;;;3.20;;
62616;SDS011;62539;51.190;6.808;2022-12-18T14:10:44;6.00;;;3.38;;
62616;SDS011;62539;51.190;6.808;2022-12-18T14:13:23;7.40;;;4.32;;
62616;SDS011;62539;51.190;6.808;2022-12-18T14:15:56;6.53;;;3.80;;
62616;SDS011;62539;51.190;6.808;2022-12-18T14:18:26;5.88;;;3.17;;
62616;SDS011;62539;51.190;6.808;2022-12-18T14:21:03;6.53;;;3.80;;
62616;SDS011;62539;51.190;6.808;2022-12-18T14:23:39;5.13;;;3.38;;
62616;SDS011;62539;51.190;6.808;2022-12-18T14:26:20;5.50;;;3.80;;
62616;SDS011;62539;51.190;6.808;2022-12-18T14:28:58;7.15;;;3.97;;
62616;SDS011;62539;51.190;6.808;2022-12-18T14:34:42;3.95;;;3.28;;
62616;SDS011;62539;51.190;6.808;2022-12-18T14:37:11;5.43;;;3.50;;
62616;SDS011;62539;51.190;6.808;2022-12-18T14:39:41;9.65;;;3.65;;
62616;SDS011;62539;51.190;6.808;2022-12-18T14:42:25;5.85;;;4.05;;
62616;SDS011;62539;51.190;6.808;2022-12-18T14:47:59;4.85;;;3.38;;
62616;SDS011;62539;51.190;6.808;2022-12-18T14:50:25;4.68;;;3.35;;
62616;SDS011;62539;51.190;6.808;2022-12-18T14:52:51;4.85;;;3.50;;
62616;SDS011;62539;51.190;6.808;2022-12-18T14:55:17;4.95;;;3.78;;
62616;SDS011;62539;51.190;6.808;2022-12-18T14:57:46;5.22;;;3.20;;
62616;SDS011;62539;51.190;6.808;2022-12-18T15:00:18;4.97;;;3.42;;
62616;SDS011;62539;51.190;6.808;2022-12-18T15:02:54;6.30;;;3.63;;
62616;SDS011;62539;51.190;6.808;2022-12-18T15:05:27;4.45;;;3.40;;
62616;SDS011;62539;51.190;6.808;2022-12-18T15:07:55;5.82;;;3.92;;
62616;SDS011;62539;51.190;6.808;2022-12-18T15:10:28;6.00;;;3.53;;
62616;SDS011;62539;51.190;6.808;2022-12-18T15:18:00;4.97;;;3.20;;
62616;SDS011;62539;51.190;6.808;2022-12-18T15:20:31;5.07;;;3.17;;
62616;SDS011;62539;51.190;6.808;2022-12-18T15:23:13;5.70;;;3.75;;
62616;SDS011;62539;51.190;6.808;2022-12-18T15:25:45;6.82;;;3.08;;
62616;SDS011;62539;51.190;6.808;2022-12-18T15:28:26;4.43;;;3.75;;
62616;SDS011;62539;51.190;6.808;2022-12-18T15:31:02;4.55;;;3.78;;
62616;SDS011;62539;51.190;6.808;2022-12-18T15:33:37;6.20;;;3.67;;
62616;SDS011;62539;51.190;6.808;2022-12-18T15:36:15;5.32;;;3.72;;
62616;SDS011;62539;51.190;6.808;2022-12-18T15:38:45;6.10;;;3.70;;
62616;SDS011;62539;51.190;6.808;2022-12-18T15:41:14;8.95;;;4.60;;
62616;SDS011;62539;51.190;6.808;2022-12-18T15:43:43;4.68;;;3.53;;
62616;SDS011;62539;51.190;6.808;2022-12-18T15:46:16;5.35;;;4.05;;
62616;SDS011;62539;51.190;6.808;2022-12-18T15:48:48;5.45;;;3.92;;
62616;SDS011;62539;51.190;6.808;2022-12-18T15:51:17;4.43;;;3.80;;
62616;SDS011;62539;51.190;6.808;2022-12-18T15:54:04;5.18;;;3.60;;
62616;SDS011;62539;51.190;6.808;2022-12-18T15:56:36;5.45;;;3.70;;
62616;SDS011;62539;51.190;6.808;2022-12-18T15:59:21;6.70;;;4.10;;
62616;SDS011;62539;51.190;6.808;2022-12-18T16:01:48;5.75;;;4.07;;
62616;SDS011;62539;51.190;6.808;2022-12-18T16:04:18;6.47;;;4.05;;
62616;SDS011;62539;51.190;6.808;2022-12-18T16:06:45;12.63;;;4.18;;
62616;SDS011;62539;51.190;6.808;2022-12-18T16:09:11;5.38;;;3.38;;
62616;SDS011;62539;51.190;6.808;2022-12-18T16:11:37;4.95;;;3.17;;
62616;SDS011;62539;51.190;6.808;2022-12-18T16:16:53;5.50;;;3.78;;
62616;SDS011;62539;51.190;6.808;2022-12-18T16:19:30;6.65;;;4.03;;
62616;SDS011;62539;51.190;6.808;2022-12-18T16:21:57;6.45;;;3.80;;
62616;SDS011;62539;51.190;6.808;2022-12-18T16:24:24;5.35;;;4.00;;
62616;SDS011;62539;51.190;6.808;2022-12-18T16:26:58;5.82;;;3.75;;
62616;SDS011;62539;51.190;6.808;2022-12-18T16:29:25;5.82;;;4.45;;
62616;SDS011;62539;51.190;6.808;2022-12-18T16:31:56;6.55;;;4.60;;
62616;SDS011;62539;51.190;6.808;2022-12-18T16:39:25;5.07;;;4.20;;
62616;SDS011;62539;51.190;6.808;2022-12-18T16:41:51;6.40;;;4.53;;
62616;SDS011;62539;51.190;6.808;2022-12-18T16:44:17;6.18;;;3.78;;
62616;SDS011;62539;51.190;6.808;2022-12-18T16:46:43;4.82;;;3.88;;
62616;SDS011;62539;51.190;6.808;2022-12-18T16:49:13;4.55;;;3.45;;
62616;SDS011;62539;51.190;6.808;2022-12-18T16:51:40;6.30;;;4.60;;
62616;SDS011;62539;51.190;6.808;2022-12-18T16:54:06;5.50;;;3.97;;
62616;SDS011;62539;51.190;6.808;2022-12-18T16:56:33;6.38;;;4.82;;
62616;SDS011;62539;51.190;6.808;2022-12-18T16:58:59;7.80;;;4.85;;
62616;SDS011;62539;51.190;6.808;2022-12-18T17:01:27;8.05;;;4.60;;
62616;SDS011;62539;51.190;6.808;2022-12-18T17:03:59;4.38;;;3.88;;
62616;SDS011;62539;51.190;6.808;2022-12-18T17:06:28;5.03;;;4.00;;
62616;SDS011;62539;51.190;6.808;2022-12-18T17:08:59;5.80;;;4.38;;
62616;SDS011;62539;51.190;6.808;2022-12-18T17:11:31;5.35;;;4.57;;
62616;SDS011;62539;51.190;6.808;2022-12-18T17:13:59;5.53;;;4.38;;
62616;SDS011;62539;51.190;6.808;2022-12-18T17:16:24;4.35;;;3.58;;
62616;SDS011;62539;51.190;6.808;2022-12-18T17:18:53;4.28;;;3.65;;
62616;SDS011;62539;51.190;6.808;2022-12-18T17:21:19;6.50;;;4.40;;
62616;SDS011;62539;51.190;6.808;2022-12-18T17:23:44;5.85;;;4.10;;
62616;SDS011;62539;51.190;6.808;2022-12-18T17:26:10;6.28;;;4.32;;